Time;durP1;ratioP1;P1;durP2;ratioP2;P2;SDS_P1;SDS_P2;PMS_P1;PMS_P2;Temp;Humidity;BMP_temperature;BMP_pressure;BME280_temperature;BME280_humidity;BME280_pressure;Samples;Min_cycle;Max_cycle;Signal;HPM_P1;HPM_P2
2021/03/30 00:04:14;;;;;;;6.43;2.93;;;10.10;98.80;;;;;;6752174;88;20191;-77
2021/03/30 00:14:15;;;;;;;4.90;2.50;;;10.10;99.30;;;;;;6751898;88;20525;-77
2021/03/30 00:24:15;;;;;;;7.15;2.55;;;10.10;99.60;;;;;;6742016;88;20565;-76
2021/03/30 00:34:16;;;;;;;6.43;2.80;;;9.90;99.90;;;;;;6745149;88;20203;-76
2021/03/30 00:44:16;;;;;;;9.95;2.80;;;9.70;99.90;;;;;;6754569;88;20304;-77
2021/03/30 00:54:17;;;;;;;5.15;2.58;;;9.30;99.90;;;;;;6755160;88;20206;-76
2021/03/30 01:04:17;;;;;;;15.80;8.77;;;9.20;99.90;;;;;;6754543;88;20343;-77
2021/03/30 01:14:37;;;;;;;8.15;3.00;;;9.00;99.90;;;;;;6755021;88;20164;-77
2021/03/30 01:24:41;;;;;;;6.12;2.83;;;8.80;99.90;;;;;;6738256;88;20190;-77
2021/03/30 01:34:46;;;;;;;6.03;2.58;;;8.60;99.90;;;;;;6733038;88;20716;-76
2021/03/30 01:44:48;;;;;;;5.62;2.53;;;8.40;99.90;;;;;;6736662;88;20217;-77
2021/03/30 01:54:49;;;;;;;4.43;2.08;;;8.40;99.90;;;;;;6736199;88;20345;-78
2021/03/30 02:04:51;;;;;;;5.45;2.33;;;8.20;99.90;;;;;;6751562;77;20189;-76
2021/03/30 02:14:51;;;;;;;6.07;2.55;;;8.20;99.90;;;;;;6757640;87;20713;-76
2021/03/30 02:24:54;;;;;;;6.07;2.50;;;8.00;99.90;;;;;;6756536;87;20200;-77
2021/03/30 02:34:55;;;;;;;5.22;2.85;;;7.90;99.90;;;;;;6751021;87;20187;-76
2021/03/30 02:44:56;;;;;;;7.28;2.45;;;7.70;99.90;;;;;;6735694;87;20308;-75
2021/03/30 02:54:57;;;;;;;6.32;2.33;;;7.50;99.90;;;;;;6743659;87;20190;-75
2021/03/30 03:04:57;;;;;;;7.35;2.17;;;7.50;99.90;;;;;;6754318;87;20191;-77
2021/03/30 03:15:00;;;;;;;6.82;2.42;;;7.40;99.90;;;;;;6763552;87;20270;-75
2021/03/30 03:25:02;;;;;;;5.20;2.40;;;7.20;99.90;;;;;;6740669;87;20223;-75
2021/03/30 03:35:03;;;;;;;6.22;3.00;;;7.10;99.90;;;;;;6720135;87;20789;-76
2021/03/30 03:45:05;;;;;;;6.97;2.50;;;6.90;99.90;;;;;;6711855;88;20183;-76
2021/03/30 03:55:08;;;;;;;6.87;2.60;;;7.00;99.90;;;;;;6746904;87;20257;-75
2021/03/30 04:05:12;;;;;;;4.68;2.40;;;6.90;99.90;;;;;;6779482;87;20614;-76
2021/03/30 04:15:14;;;;;;;4.15;2.30;;;6.80;99.90;;;;;;6758340;87;20202;-76
2021/03/30 04:25:15;;;;;;;7.75;2.30;;;6.80;99.90;;;;;;6746279;87;20194;-76
2021/03/30 04:35:16;;;;;;;6.00;2.25;;;6.70;99.90;;;;;;6770546;87;20777;-76
2021/03/30 04:45:16;;;;;;;8.88;2.45;;;6.80;99.90;;;;;;6771334;87;20253;-76
2021/03/30 04:55:17;;;;;;;5.43;2.83;;;6.60;99.90;;;;;;6744519;87;20781;-75
2021/03/30 05:05:18;;;;;;;4.93;2.45;;;6.50;99.90;;;;;;6734809;87;20195;-75
2021/03/30 05:15:18;;;;;;;7.60;2.50;;;6.60;99.90;;;;;;6754005;87;20728;-76
2021/03/30 05:25:19;;;;;;;5.65;2.87;;;6.60;99.90;;;;;;6718021;87;20215;-76
2021/03/30 05:35:20;;;;;;;9.25;3.70;;;6.40;99.90;;;;;;6754908;87;21084;-76
2021/03/30 05:45:21;;;;;;;8.68;3.55;;;6.50;99.90;;;;;;6757422;87;20614;-75
2021/03/30 05:55:25;;;;;;;6.07;2.65;;;6.40;99.90;;;;;;6746631;87;20195;-75
2021/03/30 06:05:26;;;;;;;5.90;2.60;;;6.40;99.90;;;;;;6757495;87;20809;-75
2021/03/30 06:15:29;;;;;;;7.07;2.83;;;6.40;99.90;;;;;;6745096;87;20226;-76
2021/03/30 06:25:49;;;;;;;9.13;3.42;;;6.70;99.90;;;;;;6742230;87;20203;-75
2021/03/30 06:35:49;;;;;;;7.68;3.50;;;7.10;99.90;;;;;;6737324;87;20183;-76
2021/03/30 06:45:50;;;;;;;8.75;3.50;;;7.70;99.90;;;;;;6760582;87;20335;-76
2021/03/30 06:55:52;;;;;;;12.43;3.17;;;8.50;99.90;;;;;;6742843;87;20208;-76
2021/03/30 07:05:53;;;;;;;7.75;2.80;;;9.40;99.90;;;;;;6751971;87;20229;-77
2021/03/30 07:16:20;;;;;;;10.40;3.40;;;10.20;99.90;;;;;;6758156;87;20172;-76
2021/03/30 07:26:34;;;;;;;10.30;3.67;;;10.80;99.90;;;;;;6744014;87;20217;-76
2021/03/30 07:36:52;;;;;;;6.00;3.30;;;11.50;99.90;;;;;;6742853;87;20206;-76
2021/03/30 07:46:55;;;;;;;6.82;3.08;;;12.40;99.90;;;;;;6718132;87;20196;-76
2021/03/30 07:56:55;;;;;;;10.52;3.85;;;12.90;99.90;;;;;;6754946;87;20221;-76
2021/03/30 08:06:56;;;;;;;8.13;3.70;;;13.40;99.90;;;;;;6746640;76;20258;-76
2021/03/30 08:16:57;;;;;;;9.40;3.53;;;14.10;99.90;;;;;;6734514;88;20657;-76
2021/03/30 08:26:58;;;;;;;15.63;3.90;;;15.10;97.60;;;;;;6734880;88;20186;-76
2021/03/30 08:37:06;;;;;;;8.82;3.95;;;15.70;95.80;;;;;;6725229;88;20247;-76
2021/03/30 08:47:08;;;;;;;11.15;3.70;;;16.60;94.60;;;;;;6748838;88;20678;-76
2021/03/30 08:57:13;;;;;;;9.95;3.53;;;17.30;91.60;;;;;;6737774;88;20761;-77
2021/03/30 09:07:13;;;;;;;8.73;3.55;;;18.00;90.40;;;;;;6745728;87;20711;-77
2021/03/30 09:17:17;;;;;;;9.82;3.17;;;18.80;87.10;;;;;;6763655;87;20300;-77
2021/03/30 09:27:28;;;;;;;8.93;2.83;;;19.70;82.90;;;;;;6755139;87;20676;-77
2021/03/30 09:37:40;;;;;;;8.90;3.15;;;20.90;78.60;;;;;;6760474;87;20196;-77
2021/03/30 09:47:41;;;;;;;8.98;2.70;;;22.10;71.10;;;;;;6749988;87;20219;-75
2021/03/30 09:57:42;;;;;;;7.57;2.70;;;22.80;66.20;;;;;;6677434;88;21002;-75
2021/03/30 10:07:43;;;;;;;7.87;2.33;;;23.90;63.00;;;;;;6673350;88;20236;-75
2021/03/30 10:17:45;;;;;;;9.30;2.33;;;24.30;57.70;;;;;;6685382;88;20213;-77
2021/03/30 10:27:52;;;;;;;5.62;2.10;;;25.20;55.10;;;;;;6694723;88;20193;-75
2021/03/30 10:37:53;;;;;;;8.52;2.50;;;25.90;53.30;;;;;;6673772;88;20370;-76
2021/03/30 10:48:00;;;;;;;5.10;2.20;;;26.70;48.40;;;;;;6685062;88;20187;-76
2021/03/30 10:58:08;;;;;;;4.35;1.67;;;26.30;49.00;;;;;;6675335;88;20531;-77
2021/03/30 11:08:08;;;;;;;3.22;1.73;;;24.90;43.80;;;;;;6685081;88;20317;-77
2021/03/30 11:18:09;;;;;;;3.47;1.70;;;24.90;43.60;;;;;;6689639;88;20621;-77
2021/03/30 11:28:12;;;;;;;3.92;1.50;;;25.10;42.70;;;;;;6686310;88;20186;-77
2021/03/30 11:38:12;;;;;;;5.03;1.90;;;24.70;41.90;;;;;;6696383;88;20234;-75
2021/03/30 11:48:13;;;;;;;4.77;1.90;;;26.60;43.20;;;;;;6689466;88;20777;-77
2021/03/30 11:58:14;;;;;;;3.73;1.60;;;26.00;40.70;;;;;;6679958;89;20199;-77
2021/03/30 12:08:14;;;;;;;9.02;3.53;;;26.00;41.40;;;;;;6692663;88;20244;-77
2021/03/30 12:18:15;;;;;;;4.03;1.70;;;26.80;40.30;;;;;;6690441;88;20664;-77
2021/03/30 12:28:15;;;;;;;3.37;1.42;;;28.40;39.80;;;;;;6682630;88;20200;-77
2021/03/30 12:38:16;;;;;;;4.28;1.50;;;26.90;37.40;;;;;;6679171;89;20285;-77
2021/03/30 12:48:17;;;;;;;3.12;1.20;;;27.80;34.40;;;;;;6673739;88;20682;-76
2021/03/30 12:58:17;;;;;;;3.55;1.30;;;29.40;31.50;;;;;;6684422;88;20266;-76
2021/03/30 13:08:18;;;;;;;3.90;1.40;;;31.10;32.50;;;;;;6701406;88;20228;-76
2021/03/30 13:18:19;;;;;;;3.17;1.35;;;30.30;33.10;;;;;;6692198;88;20196;-76
2021/03/30 13:28:19;;;;;;;4.03;1.60;;;29.80;35.00;;;;;;6684047;88;20320;-77
2021/03/30 13:38:20;;;;;;;2.47;1.15;;;29.80;33.50;;;;;;6686486;88;20312;-77
2021/03/30 13:48:20;;;;;;;3.87;1.33;;;29.60;33.90;;;;;;6686304;88;20344;-75
2021/03/30 13:58:21;;;;;;;7.45;1.50;;;29.50;34.50;;;;;;6682264;88;20527;-77
2021/03/30 14:08:22;;;;;;;3.35;1.10;;;29.30;32.60;;;;;;6686584;77;20283;-76
2021/03/30 14:18:34;;;;;;;4.03;1.10;;;29.20;30.20;;;;;;6706384;88;20194;-76
2021/03/30 14:28:35;;;;;;;;;;;29.20;27.90;;;;;;6691243;88;20224;-76
2021/03/30 14:38:36;;;;;;;5.85;1.42;;;27.80;28.90;;;;;;6681557;88;20118;-77
2021/03/30 14:59:11;;;;;;;4.70;1.27;;;27.90;30.00;;;;;;6699692;88;20766;-75
2021/03/30 15:09:12;;;;;;;5.97;1.50;;;27.80;28.60;;;;;;6690116;88;20204;-76
2021/03/30 15:19:14;;;;;;;2.95;1.20;;;28.30;29.60;;;;;;6629762;89;20342;-76
2021/03/30 15:29:15;;;;;;;3.53;1.30;;;27.40;28.70;;;;;;6626617;89;20721;-76
2021/03/30 15:39:15;;;;;;;5.22;1.37;;;27.10;28.30;;;;;;6622560;89;20215;-76
2021/03/30 15:49:16;;;;;;;5.30;1.63;;;26.50;28.50;;;;;;6624736;88;20201;-76
2021/03/30 15:59:16;;;;;;;3.75;1.60;;;26.70;31.20;;;;;;6625623;89;20343;-76
2021/03/30 16:09:17;;;;;;;4.65;1.45;;;26.50;32.60;;;;;;6631253;89;20193;-77
2021/03/30 16:19:18;;;;;;;9.45;4.68;;;26.00;31.40;;;;;;6627770;89;20194;-76
2021/03/30 16:29:18;;;;;;;7.55;2.83;;;25.30;32.80;;;;;;6631102;89;20624;-76
2021/03/30 16:39:19;;;;;;;6.75;2.72;;;24.80;34.40;;;;;;6628354;89;20185;-76
2021/03/30 16:49:21;;;;;;;24.23;13.32;;;24.50;36.00;;;;;;6627793;89;20616;-76
2021/03/30 16:59:22;;;;;;;9.75;5.10;;;24.40;38.00;;;;;;6631049;89;20215;-76
2021/03/30 17:09:23;;;;;;;10.18;3.60;;;24.20;39.40;;;;;;6631823;89;20214;-76
2021/03/30 17:19:23;;;;;;;5.90;2.90;;;23.90;40.50;;;;;;6632426;89;20249;-76
2021/03/30 17:29:24;;;;;;;4.47;2.20;;;23.70;40.70;;;;;;6628619;89;20236;-77
2021/03/30 17:39:25;;;;;;;7.47;2.00;;;23.30;41.60;;;;;;6628265;89;20206;-77
2021/03/30 17:49:26;;;;;;;9.02;2.83;;;23.00;41.90;;;;;;6629842;89;20411;-76
2021/03/30 17:59:26;;;;;;;4.97;2.30;;;22.30;43.40;;;;;;6635108;89;20670;-76
2021/03/30 18:09:27;;;;;;;5.70;2.87;;;21.90;44.00;;;;;;6637419;89;20189;-77
2021/03/30 18:19:28;;;;;;;7.20;2.70;;;21.40;45.40;;;;;;6634401;89;20344;-76
2021/03/30 18:29:28;;;;;;;7.78;2.95;;;21.00;46.20;;;;;;6640487;89;20213;-76
2021/03/30 18:39:29;;;;;;;7.37;3.65;;;20.60;47.40;;;;;;6633337;88;20681;-76
2021/03/30 18:49:30;;;;;;;8.90;4.28;;;20.00;48.70;;;;;;6646756;89;20216;-75
2021/03/30 18:59:31;;;;;;;9.48;5.20;;;19.40;50.20;;;;;;6640731;89;20289;-75
2021/03/30 19:09:32;;;;;;;10.07;4.82;;;19.10;50.80;;;;;;6640058;89;20201;-76
2021/03/30 19:19:32;;;;;;;12.05;4.12;;;18.60;52.50;;;;;;6635095;89;20746;-76
2021/03/30 19:29:34;;;;;;;9.15;4.70;;;18.30;52.90;;;;;;6630845;89;20278;-76
2021/03/30 19:39:35;;;;;;;10.15;5.22;;;18.00;54.20;;;;;;6631108;89;20271;-76
2021/03/30 19:49:36;;;;;;;12.15;5.22;;;17.60;56.10;;;;;;6634034;89;20201;-76
2021/03/30 19:59:36;;;;;;;9.43;5.03;;;17.20;57.50;;;;;;6628433;89;20204;-76
2021/03/30 20:09:39;;;;;;;11.68;4.95;;;16.80;58.80;;;;;;6642233;89;20268;-75
2021/03/30 20:19:39;;;;;;;10.85;5.85;;;16.50;58.40;;;;;;6632995;89;20684;-75
2021/03/30 20:29:40;;;;;;;8.35;4.60;;;16.10;59.90;;;;;;6632156;89;20242;-75
2021/03/30 20:39:40;;;;;;;12.63;5.30;;;15.90;60.50;;;;;;6634406;89;20200;-75
2021/03/30 20:49:41;;;;;;;8.23;3.87;;;15.80;60.60;;;;;;6640989;89;20188;-75
2021/03/30 20:59:41;;;;;;;9.80;4.43;;;15.60;60.90;;;;;;6642246;89;20371;-75
2021/03/30 21:09:42;;;;;;;10.10;4.28;;;15.30;63.00;;;;;;6614480;89;20353;-76
2021/03/30 21:19:42;;;;;;;10.35;5.00;;;14.80;64.80;;;;;;6628733;89;20592;-75
2021/03/30 21:29:43;;;;;;;9.05;4.55;;;14.60;65.60;;;;;;6623275;89;20211;-75
2021/03/30 21:39:44;;;;;;;11.07;4.73;;;14.40;66.70;;;;;;6638249;89;20276;-75
2021/03/30 21:49:44;;;;;;;7.03;4.37;;;14.20;67.30;;;;;;6634647;89;21104;-75
2021/03/30 21:59:45;;;;;;;9.13;4.22;;;14.00;68.60;;;;;;6631623;89;20225;-75
2021/03/30 22:09:47;;;;;;;9.98;4.57;;;13.90;69.90;;;;;;6640383;89;20214;-75
2021/03/30 22:19:48;;;;;;;11.63;4.90;;;13.40;72.20;;;;;;6629711;89;20350;-75
2021/03/30 22:29:48;;;;;;;9.48;4.50;;;13.20;75.00;;;;;;6636298;89;20213;-75
2021/03/30 22:39:49;;;;;;;8.65;4.32;;;13.10;79.90;;;;;;6628363;89;20247;-75
2021/03/30 22:49:49;;;;;;;11.75;4.80;;;12.70;86.60;;;;;;6626192;89;20186;-75
2021/03/30 22:59:50;;;;;;;12.82;4.68;;;12.60;91.40;;;;;;6656848;89;20189;-75
2021/03/30 23:09:50;;;;;;;10.88;4.53;;;12.40;93.60;;;;;;6640771;89;20194;-77
2021/03/30 23:19:51;;;;;;;7.00;3.60;;;12.30;94.90;;;;;;6629981;89;20243;-76
2021/03/30 23:29:51;;;;;;;10.43;3.75;;;12.30;94.90;;;;;;6610518;89;20215;-77
2021/03/30 23:39:52;;;;;;;8.50;3.80;;;12.20;95.70;;;;;;6638522;88;20196;-77
2021/03/30 23:49:53;;;;;;;7.60;3.25;;;12.00;96.70;;;;;;6641542;89;20196;-77
2021/03/30 23:59:54;;;;;;;6.78;3.17;;;11.90;97.20;;;;;;6633349;89;20200;-76
